Terminal Aerodrome Forecast
Issued by NWS

Home | Current Version | Previous Version | Text Only | Print | Product List | Glossary On
Versions: 1 2 3 4 5 6 7 8 9 10 11 12 13 14 15 16 17
000
FTUS42 KFFC 270524
TAFRYY
TAF
KRYY 270524Z 2706/2806 31005KT 5SM BR BKN004
      TEMPO 2706/2710 1/2SM FG OVC002
     FM271200 30005KT 3SM BR BKN008
     FM271400 32008KT P6SM SCT012
     FM271700 32009KT P6SM FEW200
     FM280300 29005KT P6SM SKC=

USA.gov is the U.S. government's official web portal to all federal, state and local government web resources and services.